Little Sioux, Iowa
Current Conditions -  °F | °C
As of 2:54 PM on Sunday 21 Dec 2014 (Local Time) from KTQE Reporting Station
Overcast Overcast  
Wind Chill: 33°   Ceiling: 800
Heat Index: 42°   Visibility: 10mi
Dew Point: 38°   Wind: 21mph
Humidity: 85%   Direction: 180°S
Pressure: 29.72"   Gusts: 30mph
Location:  41.81°N, 96.02°W
Report Text: KTQE 212054Z AUTO 18018G26KT 10SM OVC008 06/03 A2972 RMK AO2 PK WND 19026/2050 SLP066 T00560033 56023
Loading
Personal Weather Stations






























Interactive Weather Map New forecast layout! Learn more

10-Day Weather Forecast

Advertisements
Track Severe Weather on mobile